sensor_id;sensor_type;location;lat;lon;timestamp;temperature;humidity
72114;SHT31;59989;46.220;19.888;2022-08-19T00:02:38;23.03;64.22
72114;SHT31;59989;46.220;19.888;2022-08-19T00:05:51;22.95;64.20
72114;SHT31;59989;46.220;19.888;2022-08-19T00:08:54;22.91;63.73
72114;SHT31;59989;46.220;19.888;2022-08-19T00:11:58;22.84;64.31
72114;SHT31;59989;46.220;19.888;2022-08-19T00:15:00;22.73;63.85
72114;SHT31;59989;46.220;19.888;2022-08-19T00:18:03;22.75;64.03
72114;SHT31;59989;46.220;19.888;2022-08-19T00:21:05;22.69;64.33
72114;SHT31;59989;46.220;19.888;2022-08-19T00:24:13;22.68;64.07
72114;SHT31;59989;46.220;19.888;2022-08-19T00:27:16;22.64;64.32
72114;SHT31;59989;46.220;19.888;2022-08-19T00:30:28;22.55;64.58
72114;SHT31;59989;46.220;19.888;2022-08-19T00:33:31;22.55;64.24
72114;SHT31;59989;46.220;19.888;2022-08-19T00:36:34;22.52;64.09
72114;SHT31;59989;46.220;19.888;2022-08-19T00:39:37;22.52;64.31
72114;SHT31;59989;46.220;19.888;2022-08-19T00:42:40;22.47;64.66
72114;SHT31;59989;46.220;19.888;2022-08-19T00:45:42;22.41;64.22
72114;SHT31;59989;46.220;19.888;2022-08-19T00:48:45;22.37;64.65
72114;SHT31;59989;46.220;19.888;2022-08-19T00:51:50;22.31;64.77
72114;SHT31;59989;46.220;19.888;2022-08-19T00:54:53;22.27;64.74
72114;SHT31;59989;46.220;19.888;2022-08-19T00:58:08;22.27;65.25
72114;SHT31;59989;46.220;19.888;2022-08-19T01:01:12;22.29;65.52
72114;SHT31;59989;46.220;19.888;2022-08-19T01:04:16;22.27;65.62
72114;SHT31;59989;46.220;19.888;2022-08-19T01:07:18;22.29;66.75
72114;SHT31;59989;46.220;19.888;2022-08-19T01:10:25;22.29;65.48
72114;SHT31;59989;46.220;19.888;2022-08-19T01:13:30;22.18;65.92
72114;SHT31;59989;46.220;19.888;2022-08-19T01:16:52;22.18;66.50
72114;SHT31;59989;46.220;19.888;2022-08-19T01:19:56;22.16;66.20
72114;SHT31;59989;46.220;19.888;2022-08-19T01:22:59;22.07;67.67
72114;SHT31;59989;46.220;19.888;2022-08-19T01:26:01;22.02;67.12
72114;SHT31;59989;46.220;19.888;2022-08-19T01:29:03;21.96;66.95
72114;SHT31;59989;46.220;19.888;2022-08-19T01:32:09;21.89;67.10
72114;SHT31;59989;46.220;19.888;2022-08-19T01:35:35;21.85;67.64
72114;SHT31;59989;46.220;19.888;2022-08-19T01:38:40;21.82;67.35
72114;SHT31;59989;46.220;19.888;2022-08-19T01:41:46;21.79;67.50
72114;SHT31;59989;46.220;19.888;2022-08-19T01:44:48;21.78;67.54
72114;SHT31;59989;46.220;19.888;2022-08-19T01:47:51;21.73;67.30
72114;SHT31;59989;46.220;19.888;2022-08-19T01:51:04;21.75;67.58
72114;SHT31;59989;46.220;19.888;2022-08-19T01:54:08;21.69;67.58
72114;SHT31;59989;46.220;19.888;2022-08-19T01:57:12;21.71;67.50
72114;SHT31;59989;46.220;19.888;2022-08-19T02:00:18;21.66;67.65
72114;SHT31;59989;46.220;19.888;2022-08-19T02:03:21;21.65;67.30
72114;SHT31;59989;46.220;19.888;2022-08-19T02:06:24;21.63;67.63
72114;SHT31;59989;46.220;19.888;2022-08-19T02:09:28;21.61;68.32
72114;SHT31;59989;46.220;19.888;2022-08-19T02:12:30;21.54;68.24
72114;SHT31;59989;46.220;19.888;2022-08-19T02:15:33;21.49;68.80
72114;SHT31;59989;46.220;19.888;2022-08-19T02:18:36;21.49;69.36
72114;SHT31;59989;46.220;19.888;2022-08-19T02:21:39;21.46;69.39
72114;SHT31;59989;46.220;19.888;2022-08-19T02:24:41;21.38;69.68
72114;SHT31;59989;46.220;19.888;2022-08-19T02:27:44;21.30;69.92
72114;SHT31;59989;46.220;19.888;2022-08-19T02:30:47;21.23;70.14
72114;SHT31;59989;46.220;19.888;2022-08-19T02:33:49;21.15;70.32
72114;SHT31;59989;46.220;19.888;2022-08-19T02:36:52;21.06;70.85
72114;SHT31;59989;46.220;19.888;2022-08-19T02:39:55;21.01;71.38
72114;SHT31;59989;46.220;19.888;2022-08-19T02:42:57;20.98;71.10
72114;SHT31;59989;46.220;19.888;2022-08-19T02:46:00;20.91;71.81
72114;SHT31;59989;46.220;19.888;2022-08-19T02:49:05;20.91;71.87
72114;SHT31;59989;46.220;19.888;2022-08-19T02:52:08;20.91;71.75
72114;SHT31;59989;46.220;19.888;2022-08-19T02:55:10;20.93;70.64
72114;SHT31;59989;46.220;19.888;2022-08-19T02:58:14;20.91;70.76
72114;SHT31;59989;46.220;19.888;2022-08-19T03:01:28;20.97;71.13
72114;SHT31;59989;46.220;19.888;2022-08-19T03:04:31;20.98;71.48
72114;SHT31;59989;46.220;19.888;2022-08-19T03:07:34;20.97;70.84
72114;SHT31;59989;46.220;19.888;2022-08-19T03:10:41;20.88;71.00
72114;SHT31;59989;46.220;19.888;2022-08-19T03:13:46;20.87;70.82
72114;SHT31;59989;46.220;19.888;2022-08-19T03:16:50;20.84;71.59
72114;SHT31;59989;46.220;19.888;2022-08-19T03:19:53;20.77;71.82
72114;SHT31;59989;46.220;19.888;2022-08-19T03:22:56;20.72;72.40
72114;SHT31;59989;46.220;19.888;2022-08-19T03:25:58;20.69;72.62
72114;SHT31;59989;46.220;19.888;2022-08-19T03:29:18;20.65;72.97
72114;SHT31;59989;46.220;19.888;2022-08-19T03:32:32;20.62;72.83
72114;SHT31;59989;46.220;19.888;2022-08-19T03:35:34;20.65;72.83
72114;SHT31;59989;46.220;19.888;2022-08-19T03:38:45;20.60;72.88
72114;SHT31;59989;46.220;19.888;2022-08-19T03:41:49;20.63;73.40
72114;SHT31;59989;46.220;19.888;2022-08-19T03:45:12;20.60;73.64
72114;SHT31;59989;46.220;19.888;2022-08-19T03:48:14;20.55;73.43
72114;SHT31;59989;46.220;19.888;2022-08-19T03:51:28;20.52;73.24
72114;SHT31;59989;46.220;19.888;2022-08-19T03:54:33;20.56;73.67
72114;SHT31;59989;46.220;19.888;2022-08-19T03:57:35;20.57;72.20
72114;SHT31;59989;46.220;19.888;2022-08-19T04:00:42;20.53;72.59
72114;SHT31;59989;46.220;19.888;2022-08-19T04:03:44;20.52;72.38
72114;SHT31;59989;46.220;19.888;2022-08-19T04:06:50;20.50;72.03
72114;SHT31;59989;46.220;19.888;2022-08-19T04:09:53;20.49;72.86
72114;SHT31;59989;46.220;19.888;2022-08-19T04:12:56;20.49;73.51
72114;SHT31;59989;46.220;19.888;2022-08-19T04:15:58;20.49;73.11
72114;SHT31;59989;46.220;19.888;2022-08-19T04:19:03;20.48;72.17
72114;SHT31;59989;46.220;19.888;2022-08-19T04:22:06;20.53;72.62
72114;SHT31;59989;46.220;19.888;2022-08-19T04:25:09;20.60;73.20
72114;SHT31;59989;46.220;19.888;2022-08-19T04:28:12;20.66;71.84
72114;SHT31;59989;46.220;19.888;2022-08-19T04:31:28;20.73;72.09
72114;SHT31;59989;46.220;19.888;2022-08-19T04:34:31;20.86;73.04
72114;SHT31;59989;46.220;19.888;2022-08-19T04:37:34;20.97;72.59
72114;SHT31;59989;46.220;19.888;2022-08-19T04:40:41;21.11;71.38
72114;SHT31;59989;46.220;19.888;2022-08-19T04:44:02;21.18;71.49
72114;SHT31;59989;46.220;19.888;2022-08-19T04:47:05;21.21;70.74
72114;SHT31;59989;46.220;19.888;2022-08-19T04:50:12;21.28;70.51
72114;SHT31;59989;46.220;19.888;2022-08-19T04:53:15;21.39;70.64
72114;SHT31;59989;46.220;19.888;2022-08-19T04:56:19;21.48;69.72
72114;SHT31;59989;46.220;19.888;2022-08-19T04:59:24;21.55;68.21
72114;SHT31;59989;46.220;19.888;2022-08-19T05:02:27;21.69;68.99
72114;SHT31;59989;46.220;19.888;2022-08-19T05:05:29;21.85;69.17
72114;SHT31;59989;46.220;19.888;2022-08-19T05:08:47;21.99;68.75
72114;SHT31;59989;46.220;19.888;2022-08-19T05:11:50;22.10;67.63
72114;SHT31;59989;46.220;19.888;2022-08-19T05:14:57;22.17;67.61
72114;SHT31;59989;46.220;19.888;2022-08-19T05:18:00;22.36;66.30
72114;SHT31;59989;46.220;19.888;2022-08-19T05:21:23;22.54;66.18
72114;SHT31;59989;46.220;19.888;2022-08-19T05:24:44;22.71;65.28
72114;SHT31;59989;46.220;19.888;2022-08-19T05:28:06;22.84;65.11
72114;SHT31;59989;46.220;19.888;2022-08-19T05:31:09;22.94;64.67
72114;SHT31;59989;46.220;19.888;2022-08-19T05:34:11;23.05;65.28
72114;SHT31;59989;46.220;19.888;2022-08-19T05:37:21;23.23;65.24
72114;SHT31;59989;46.220;19.888;2022-08-19T05:40:24;23.37;63.80
72114;SHT31;59989;46.220;19.888;2022-08-19T05:43:28;23.47;63.08
72114;SHT31;59989;46.220;19.888;2022-08-19T05:46:30;23.56;62.28
72114;SHT31;59989;46.220;19.888;2022-08-19T05:49:35;23.57;61.94
72114;SHT31;59989;46.220;19.888;2022-08-19T05:52:38;23.68;61.59
72114;SHT31;59989;46.220;19.888;2022-08-19T05:55:51;23.82;61.37
72114;SHT31;59989;46.220;19.888;2022-08-19T05:58:53;24.04;61.47
72114;SHT31;59989;46.220;19.888;2022-08-19T06:01:56;24.18;60.28
72114;SHT31;59989;46.220;19.888;2022-08-19T06:04:59;24.36;60.56
72114;SHT31;59989;46.220;19.888;2022-08-19T06:08:01;24.45;59.93
72114;SHT31;59989;46.220;19.888;2022-08-19T06:11:14;24.56;60.16
72114;SHT31;59989;46.220;19.888;2022-08-19T06:14:21;24.57;59.31
72114;SHT31;59989;46.220;19.888;2022-08-19T06:17:29;24.70;58.90
72114;SHT31;59989;46.220;19.888;2022-08-19T06:20:33;24.95;58.77
72114;SHT31;59989;46.220;19.888;2022-08-19T06:23:56;25.17;57.72
72114;SHT31;59989;46.220;19.888;2022-08-19T06:27:00;25.37;57.32
72114;SHT31;59989;46.220;19.888;2022-08-19T06:30:04;25.51;56.42
72114;SHT31;59989;46.220;19.888;2022-08-19T06:33:06;25.69;56.02
72114;SHT31;59989;46.220;19.888;2022-08-19T06:36:24;25.94;55.94
72114;SHT31;59989;46.220;19.888;2022-08-19T06:39:34;26.14;56.32
72114;SHT31;59989;46.220;19.888;2022-08-19T06:42:37;26.31;54.87
72114;SHT31;59989;46.220;19.888;2022-08-19T06:45:56;26.44;54.15
72114;SHT31;59989;46.220;19.888;2022-08-19T06:49:00;26.64;53.88
72114;SHT31;59989;46.220;19.888;2022-08-19T06:52:04;26.81;53.02
72114;SHT31;59989;46.220;19.888;2022-08-19T06:55:07;27.00;52.67
72114;SHT31;59989;46.220;19.888;2022-08-19T06:58:10;27.16;52.03
72114;SHT31;59989;46.220;19.888;2022-08-19T07:01:12;27.42;52.33
72114;SHT31;59989;46.220;19.888;2022-08-19T07:04:21;27.72;50.73
72114;SHT31;59989;46.220;19.888;2022-08-19T07:07:24;27.84;50.87
72114;SHT31;59989;46.220;19.888;2022-08-19T07:10:27;28.15;50.31
72114;SHT31;59989;46.220;19.888;2022-08-19T07:13:29;28.38;49.88
72114;SHT31;59989;46.220;19.888;2022-08-19T07:16:37;28.59;48.78
72114;SHT31;59989;46.220;19.888;2022-08-19T07:19:44;28.77;48.78
72114;SHT31;59989;46.220;19.888;2022-08-19T07:22:48;28.97;47.49
72114;SHT31;59989;46.220;19.888;2022-08-19T07:25:51;29.18;48.35
72114;SHT31;59989;46.220;19.888;2022-08-19T07:28:54;29.27;47.97
72114;SHT31;59989;46.220;19.888;2022-08-19T07:31:57;29.61;47.24
72114;SHT31;59989;46.220;19.888;2022-08-19T07:35:02;29.93;46.56
72114;SHT31;59989;46.220;19.888;2022-08-19T07:38:05;30.09;45.97
72114;SHT31;59989;46.220;19.888;2022-08-19T07:41:13;30.34;45.08
72114;SHT31;59989;46.220;19.888;2022-08-19T07:44:17;30.30;44.93
72114;SHT31;59989;46.220;19.888;2022-08-19T07:47:19;30.40;45.28
72114;SHT31;59989;46.220;19.888;2022-08-19T07:50:42;30.89;43.93
72114;SHT31;59989;46.220;19.888;2022-08-19T07:53:46;31.20;43.01
72114;SHT31;59989;46.220;19.888;2022-08-19T07:56:48;31.25;42.84
72114;SHT31;59989;46.220;19.888;2022-08-19T07:59:53;31.46;43.89
72114;SHT31;59989;46.220;19.888;2022-08-19T08:02:56;31.77;42.73
72114;SHT31;59989;46.220;19.888;2022-08-19T08:05:59;31.98;41.37
72114;SHT31;59989;46.220;19.888;2022-08-19T08:09:23;32.06;40.78
72114;SHT31;59989;46.220;19.888;2022-08-19T08:12:37;32.32;40.64
72114;SHT31;59989;46.220;19.888;2022-08-19T08:15:43;32.02;40.98
72114;SHT31;59989;46.220;19.888;2022-08-19T08:18:46;32.33;40.79
72114;SHT31;59989;46.220;19.888;2022-08-19T08:21:56;32.66;40.69
72114;SHT31;59989;46.220;19.888;2022-08-19T08:25:26;32.77;39.43
72114;SHT31;59989;46.220;19.888;2022-08-19T08:28:33;33.12;38.61
72114;SHT31;59989;46.220;19.888;2022-08-19T08:31:36;33.21;38.59
72114;SHT31;59989;46.220;19.888;2022-08-19T08:34:38;33.59;37.71
72114;SHT31;59989;46.220;19.888;2022-08-19T08:37:41;33.52;37.97
72114;SHT31;59989;46.220;19.888;2022-08-19T08:40:47;33.72;37.17
72114;SHT31;59989;46.220;19.888;2022-08-19T08:43:52;33.92;37.20
72114;SHT31;59989;46.220;19.888;2022-08-19T08:46:59;33.92;37.17
72114;SHT31;59989;46.220;19.888;2022-08-19T08:50:07;34.43;35.38
72114;SHT31;59989;46.220;19.888;2022-08-19T08:53:17;34.84;35.33
72114;SHT31;59989;46.220;19.888;2022-08-19T08:56:33;35.08;35.02
72114;SHT31;59989;46.220;19.888;2022-08-19T08:59:40;35.40;33.63
72114;SHT31;59989;46.220;19.888;2022-08-19T09:02:44;35.02;33.89
72114;SHT31;59989;46.220;19.888;2022-08-19T09:06:02;35.28;34.00
72114;SHT31;59989;46.220;19.888;2022-08-19T09:09:17;35.63;33.60
72114;SHT31;59989;46.220;19.888;2022-08-19T09:15:56;36.41;31.64
72114;SHT31;59989;46.220;19.888;2022-08-19T09:19:05;36.96;30.30
72114;SHT31;59989;46.220;19.888;2022-08-19T09:22:09;37.10;30.14
72114;SHT31;59989;46.220;19.888;2022-08-19T09:25:14;36.56;30.29
72114;SHT31;59989;46.220;19.888;2022-08-19T09:28:17;36.46;30.51
72114;SHT31;59989;46.220;19.888;2022-08-19T09:31:26;37.16;30.61
72114;SHT31;59989;46.220;19.888;2022-08-19T09:34:28;37.17;29.79
72114;SHT31;59989;46.220;19.888;2022-08-19T09:37:39;37.14;29.38
72114;SHT31;59989;46.220;19.888;2022-08-19T09:40:41;37.16;28.79
72114;SHT31;59989;46.220;19.888;2022-08-19T09:43:47;37.45;29.26
72114;SHT31;59989;46.220;19.888;2022-08-19T09:46:49;37.67;28.67
72114;SHT31;59989;46.220;19.888;2022-08-19T09:49:53;37.69;28.57
72114;SHT31;59989;46.220;19.888;2022-08-19T09:52:56;37.60;28.22
72114;SHT31;59989;46.220;19.888;2022-08-19T09:56:00;38.11;27.82
72114;SHT31;59989;46.220;19.888;2022-08-19T09:59:05;38.32;28.01
72114;SHT31;59989;46.220;19.888;2022-08-19T10:02:08;38.66;27.09
72114;SHT31;59989;46.220;19.888;2022-08-19T10:05:12;39.07;27.26
72114;SHT31;59989;46.220;19.888;2022-08-19T10:08:35;39.32;26.42
72114;SHT31;59989;46.220;19.888;2022-08-19T10:11:43;39.05;26.15
72114;SHT31;59989;46.220;19.888;2022-08-19T10:14:56;39.21;26.58
72114;SHT31;59989;46.220;19.888;2022-08-19T10:17:58;39.53;25.82
72114;SHT31;59989;46.220;19.888;2022-08-19T10:21:05;39.82;26.25
72114;SHT31;59989;46.220;19.888;2022-08-19T10:24:12;39.49;26.11
72114;SHT31;59989;46.220;19.888;2022-08-19T10:27:15;39.38;26.12
72114;SHT31;59989;46.220;19.888;2022-08-19T10:30:18;39.83;26.23
72114;SHT31;59989;46.220;19.888;2022-08-19T10:33:21;39.99;25.36
72114;SHT31;59989;46.220;19.888;2022-08-19T10:36:43;40.14;25.10
72114;SHT31;59989;46.220;19.888;2022-08-19T10:39:57;39.62;25.25
72114;SHT31;59989;46.220;19.888;2022-08-19T10:43:00;40.11;25.26
72114;SHT31;59989;46.220;19.888;2022-08-19T10:46:02;40.06;24.86
72114;SHT31;59989;46.220;19.888;2022-08-19T10:49:11;40.74;24.32
72114;SHT31;59989;46.220;19.888;2022-08-19T10:52:13;40.95;24.26
72114;SHT31;59989;46.220;19.888;2022-08-19T10:55:35;40.61;23.94
72114;SHT31;59989;46.220;19.888;2022-08-19T10:58:56;39.83;24.07
72114;SHT31;59989;46.220;19.888;2022-08-19T11:02:01;40.16;24.64
72114;SHT31;59989;46.220;19.888;2022-08-19T11:05:04;40.98;23.21
72114;SHT31;59989;46.220;19.888;2022-08-19T11:08:14;41.23;23.48
72114;SHT31;59989;46.220;19.888;2022-08-19T11:11:26;41.27;23.93
72114;SHT31;59989;46.220;19.888;2022-08-19T11:14:29;40.85;23.76
72114;SHT31;59989;46.220;19.888;2022-08-19T11:17:35;41.54;23.20
72114;SHT31;59989;46.220;19.888;2022-08-19T11:20:39;41.40;23.41
72114;SHT31;59989;46.220;19.888;2022-08-19T11:23:41;41.84;22.67
72114;SHT31;59989;46.220;19.888;2022-08-19T11:26:44;41.78;22.64
72114;SHT31;59989;46.220;19.888;2022-08-19T11:29:47;42.08;22.54
72114;SHT31;59989;46.220;19.888;2022-08-19T11:32:49;41.82;22.44
72114;SHT31;59989;46.220;19.888;2022-08-19T11:35:52;41.40;22.48
72114;SHT31;59989;46.220;19.888;2022-08-19T11:38:55;41.87;22.64
72114;SHT31;59989;46.220;19.888;2022-08-19T11:41:58;42.42;21.76
72114;SHT31;59989;46.220;19.888;2022-08-19T11:45:02;41.70;22.56
72114;SHT31;59989;46.220;19.888;2022-08-19T11:48:05;41.85;22.57
72114;SHT31;59989;46.220;19.888;2022-08-19T11:51:16;42.66;21.67
72114;SHT31;59989;46.220;19.888;2022-08-19T11:54:19;42.32;21.92
72114;SHT31;59989;46.220;19.888;2022-08-19T11:57:21;42.93;21.74
72114;SHT31;59989;46.220;19.888;2022-08-19T12:00:24;42.45;21.56
72114;SHT31;59989;46.220;19.888;2022-08-19T12:03:26;42.94;21.01
72114;SHT31;59989;46.220;19.888;2022-08-19T12:06:31;43.33;21.24
72114;SHT31;59989;46.220;19.888;2022-08-19T12:09:36;44.19;20.73
72114;SHT31;59989;46.220;19.888;2022-08-19T12:12:44;43.45;20.43
72114;SHT31;59989;46.220;19.888;2022-08-19T12:16:00;43.39;21.18
72114;SHT31;59989;46.220;19.888;2022-08-19T12:19:04;43.61;21.04
72114;SHT31;59989;46.220;19.888;2022-08-19T12:22:06;43.35;20.53
72114;SHT31;59989;46.220;19.888;2022-08-19T12:25:10;43.56;20.93
72114;SHT31;59989;46.220;19.888;2022-08-19T12:28:13;44.03;20.64
72114;SHT31;59989;46.220;19.888;2022-08-19T12:31:16;43.49;20.64
72114;SHT31;59989;46.220;19.888;2022-08-19T12:34:20;44.06;21.17
72114;SHT31;59989;46.220;19.888;2022-08-19T12:37:22;45.29;19.40
72114;SHT31;59989;46.220;19.888;2022-08-19T12:40:25;43.88;20.73
72114;SHT31;59989;46.220;19.888;2022-08-19T12:43:27;44.84;19.30
72114;SHT31;59989;46.220;19.888;2022-08-19T12:46:32;46.03;17.99
72114;SHT31;59989;46.220;19.888;2022-08-19T12:49:35;46.40;17.94
72114;SHT31;59989;46.220;19.888;2022-08-19T12:52:56;45.93;18.66
72114;SHT31;59989;46.220;19.888;2022-08-19T12:55:59;44.50;20.77
72114;SHT31;59989;46.220;19.888;2022-08-19T12:59:03;45.83;19.16
72114;SHT31;59989;46.220;19.888;2022-08-19T13:02:07;45.80;18.56
72114;SHT31;59989;46.220;19.888;2022-08-19T13:05:12;46.46;18.97
72114;SHT31;59989;46.220;19.888;2022-08-19T13:08:15;44.44;19.96
72114;SHT31;59989;46.220;19.888;2022-08-19T13:11:20;45.99;19.35
72114;SHT31;59989;46.220;19.888;2022-08-19T13:14:25;45.59;18.97
72114;SHT31;59989;46.220;19.888;2022-08-19T13:17:28;45.70;19.66
72114;SHT31;59989;46.220;19.888;2022-08-19T13:20:30;45.38;19.63
72114;SHT31;59989;46.220;19.888;2022-08-19T13:23:34;46.07;19.29
72114;SHT31;59989;46.220;19.888;2022-08-19T13:26:37;46.78;18.82
72114;SHT31;59989;46.220;19.888;2022-08-19T13:29:43;46.96;17.78
72114;SHT31;59989;46.220;19.888;2022-08-19T13:33:04;47.34;17.94
72114;SHT31;59989;46.220;19.888;2022-08-19T13:36:13;47.26;18.50
72114;SHT31;59989;46.220;19.888;2022-08-19T13:39:16;48.02;17.61
72114;SHT31;59989;46.220;19.888;2022-08-19T13:42:18;48.04;17.70
72114;SHT31;59989;46.220;19.888;2022-08-19T13:45:23;47.77;17.15
72114;SHT31;59989;46.220;19.888;2022-08-19T13:48:26;47.02;17.80
72114;SHT31;59989;46.220;19.888;2022-08-19T13:51:29;43.90;20.58
72114;SHT31;59989;46.220;19.888;2022-08-19T13:54:32;45.21;19.40
72114;SHT31;59989;46.220;19.888;2022-08-19T13:57:35;45.49;19.14
72114;SHT31;59989;46.220;19.888;2022-08-19T14:00:42;46.47;18.13
72114;SHT31;59989;46.220;19.888;2022-08-19T14:03:45;46.51;18.32
72114;SHT31;59989;46.220;19.888;2022-08-19T14:06:48;45.09;19.54
72114;SHT31;59989;46.220;19.888;2022-08-19T14:09:51;45.26;19.48
72114;SHT31;59989;46.220;19.888;2022-08-19T14:12:54;45.08;19.44
72114;SHT31;59989;46.220;19.888;2022-08-19T14:15:57;46.21;18.46
72114;SHT31;59989;46.220;19.888;2022-08-19T14:19:00;47.54;17.31
72114;SHT31;59989;46.220;19.888;2022-08-19T14:22:03;47.23;17.92
72114;SHT31;59989;46.220;19.888;2022-08-19T14:25:09;47.25;17.76
72114;SHT31;59989;46.220;19.888;2022-08-19T14:28:12;46.79;17.89
72114;SHT31;59989;46.220;19.888;2022-08-19T14:31:16;46.47;18.25
72114;SHT31;59989;46.220;19.888;2022-08-19T14:34:21;44.71;19.98
72114;SHT31;59989;46.220;19.888;2022-08-19T14:37:24;42.97;21.08
72114;SHT31;59989;46.220;19.888;2022-08-19T14:40:30;42.74;21.32
72114;SHT31;59989;46.220;19.888;2022-08-19T14:43:34;41.63;21.95
72114;SHT31;59989;46.220;19.888;2022-08-19T14:46:36;41.33;22.41
72114;SHT31;59989;46.220;19.888;2022-08-19T14:49:39;40.14;23.57
72114;SHT31;59989;46.220;19.888;2022-08-19T14:52:47;39.45;24.47
72114;SHT31;59989;46.220;19.888;2022-08-19T14:55:50;39.11;24.98
72114;SHT31;59989;46.220;19.888;2022-08-19T14:58:56;39.72;24.39
72114;SHT31;59989;46.220;19.888;2022-08-19T15:02:01;41.66;22.53
72114;SHT31;59989;46.220;19.888;2022-08-19T15:05:23;42.24;21.87
72114;SHT31;59989;46.220;19.888;2022-08-19T15:08:28;41.70;23.55
72114;SHT31;59989;46.220;19.888;2022-08-19T15:11:31;40.66;25.97
72114;SHT31;59989;46.220;19.888;2022-08-19T15:14:36;38.54;26.85
72114;SHT31;59989;46.220;19.888;2022-08-19T15:17:40;38.02;27.04
72114;SHT31;59989;46.220;19.888;2022-08-19T15:20:48;37.30;27.50
72114;SHT31;59989;46.220;19.888;2022-08-19T15:23:51;36.55;27.74
72114;SHT31;59989;46.220;19.888;2022-08-19T15:26:54;36.20;28.11
72114;SHT31;59989;46.220;19.888;2022-08-19T15:29:58;35.90;28.66
72114;SHT31;59989;46.220;19.888;2022-08-19T15:33:03;36.08;28.47
72114;SHT31;59989;46.220;19.888;2022-08-19T15:36:06;35.86;28.73
72114;SHT31;59989;46.220;19.888;2022-08-19T15:39:11;35.39;29.28
72114;SHT31;59989;46.220;19.888;2022-08-19T15:42:14;35.28;29.13
72114;SHT31;59989;46.220;19.888;2022-08-19T15:45:30;34.67;29.80
72114;SHT31;59989;46.220;19.888;2022-08-19T15:48:36;33.70;31.13
72114;SHT31;59989;46.220;19.888;2022-08-19T15:51:40;33.22;31.79
72114;SHT31;59989;46.220;19.888;2022-08-19T15:54:44;33.28;32.05
72114;SHT31;59989;46.220;19.888;2022-08-19T15:57:47;33.28;32.01
72114;SHT31;59989;46.220;19.888;2022-08-19T16:01:08;33.18;32.25
72114;SHT31;59989;46.220;19.888;2022-08-19T16:04:29;33.08;32.35
72114;SHT31;59989;46.220;19.888;2022-08-19T16:07:50;33.04;32.62
72114;SHT31;59989;46.220;19.888;2022-08-19T16:10:53;32.81;32.91
72114;SHT31;59989;46.220;19.888;2022-08-19T16:13:57;32.88;33.13
72114;SHT31;59989;46.220;19.888;2022-08-19T16:17:00;32.69;33.38
72114;SHT31;59989;46.220;19.888;2022-08-19T16:20:04;32.49;33.41
72114;SHT31;59989;46.220;19.888;2022-08-19T16:23:08;32.25;34.04
72114;SHT31;59989;46.220;19.888;2022-08-19T16:26:12;32.06;34.20
72114;SHT31;59989;46.220;19.888;2022-08-19T16:29:17;31.94;34.54
72114;SHT31;59989;46.220;19.888;2022-08-19T16:32:35;31.82;34.80
72114;SHT31;59989;46.220;19.888;2022-08-19T16:35:38;31.71;34.81
72114;SHT31;59989;46.220;19.888;2022-08-19T16:38:41;31.68;34.99
72114;SHT31;59989;46.220;19.888;2022-08-19T16:41:44;31.66;34.90
72114;SHT31;59989;46.220;19.888;2022-08-19T16:44:47;31.58;35.16
72114;SHT31;59989;46.220;19.888;2022-08-19T16:47:49;31.54;35.12
72114;SHT31;59989;46.220;19.888;2022-08-19T16:50:52;31.51;34.92
72114;SHT31;59989;46.220;19.888;2022-08-19T16:53:55;31.48;35.09
72114;SHT31;59989;46.220;19.888;2022-08-19T16:56:57;31.41;35.43
72114;SHT31;59989;46.220;19.888;2022-08-19T17:00:00;31.30;35.38
72114;SHT31;59989;46.220;19.888;2022-08-19T17:03:10;31.22;35.51
72114;SHT31;59989;46.220;19.888;2022-08-19T17:06:19;31.15;35.60
72114;SHT31;59989;46.220;19.888;2022-08-19T17:09:22;31.06;35.64
72114;SHT31;59989;46.220;19.888;2022-08-19T17:12:27;30.96;35.82
72114;SHT31;59989;46.220;19.888;2022-08-19T17:15:34;30.86;36.19
72114;SHT31;59989;46.220;19.888;2022-08-19T17:18:36;30.79;36.38
72114;SHT31;59989;46.220;19.888;2022-08-19T17:21:39;30.69;36.61
72114;SHT31;59989;46.220;19.888;2022-08-19T17:24:42;30.58;36.83
72114;SHT31;59989;46.220;19.888;2022-08-19T17:27:44;30.51;36.89
72114;SHT31;59989;46.220;19.888;2022-08-19T17:30:47;30.47;37.11
72114;SHT31;59989;46.220;19.888;2022-08-19T17:33:49;30.44;37.16
72114;SHT31;59989;46.220;19.888;2022-08-19T17:36:53;30.48;37.02
72114;SHT31;59989;46.220;19.888;2022-08-19T17:39:57;30.42;37.23
72114;SHT31;59989;46.220;19.888;2022-08-19T17:43:00;30.41;37.17
72114;SHT31;59989;46.220;19.888;2022-08-19T17:46:04;30.35;37.43
72114;SHT31;59989;46.220;19.888;2022-08-19T17:49:06;30.27;37.65
72114;SHT31;59989;46.220;19.888;2022-08-19T17:52:09;30.23;37.85
72114;SHT31;59989;46.220;19.888;2022-08-19T17:55:13;30.18;37.96
72114;SHT31;59989;46.220;19.888;2022-08-19T17:58:16;30.14;37.96
72114;SHT31;59989;46.220;19.888;2022-08-19T18:01:23;30.10;38.16
72114;SHT31;59989;46.220;19.888;2022-08-19T18:04:27;30.04;38.35
72114;SHT31;59989;46.220;19.888;2022-08-19T18:07:30;29.99;38.56
72114;SHT31;59989;46.220;19.888;2022-08-19T18:10:36;29.96;38.84
72114;SHT31;59989;46.220;19.888;2022-08-19T18:13:39;29.92;38.82
72114;SHT31;59989;46.220;19.888;2022-08-19T18:16:41;29.89;39.34
72114;SHT31;59989;46.220;19.888;2022-08-19T18:19:45;29.63;39.63
72114;SHT31;59989;46.220;19.888;2022-08-19T18:22:48;28.84;43.89
72114;SHT31;59989;46.220;19.888;2022-08-19T18:25:51;28.61;44.35
72114;SHT31;59989;46.220;19.888;2022-08-19T18:28:54;28.57;44.05
72114;SHT31;59989;46.220;19.888;2022-08-19T18:31:56;28.19;48.21
72114;SHT31;59989;46.220;19.888;2022-08-19T18:35:06;27.40;48.57
72114;SHT31;59989;46.220;19.888;2022-08-19T18:38:14;26.96;49.58
72114;SHT31;59989;46.220;19.888;2022-08-19T18:41:36;26.86;50.32
72114;SHT31;59989;46.220;19.888;2022-08-19T18:44:58;26.21;54.11
72114;SHT31;59989;46.220;19.888;2022-08-19T18:48:19;25.63;55.56
72114;SHT31;59989;46.220;19.888;2022-08-19T18:51:40;25.37;57.94
72114;SHT31;59989;46.220;19.888;2022-08-19T18:54:42;25.18;57.44
72114;SHT31;59989;46.220;19.888;2022-08-19T18:57:48;25.10;57.92
72114;SHT31;59989;46.220;19.888;2022-08-19T19:00:53;24.94;58.96
72114;SHT31;59989;46.220;19.888;2022-08-19T19:04:01;24.67;60.92
72114;SHT31;59989;46.220;19.888;2022-08-19T19:07:05;24.33;62.79
72114;SHT31;59989;46.220;19.888;2022-08-19T19:10:08;24.14;64.18
72114;SHT31;59989;46.220;19.888;2022-08-19T19:13:11;24.09;64.89
72114;SHT31;59989;46.220;19.888;2022-08-19T19:16:17;24.19;65.59
72114;SHT31;59989;46.220;19.888;2022-08-19T19:19:25;24.24;65.91